Time;durP1;ratioP1;P1;durP2;ratioP2;P2;SDS_P1;SDS_P2;PMS_P1;PMS_P2;Temp;Humidity;BMP_temperature;BMP_pressure;BME280_temperature;BME280_humidity;BME280_pressure;Samples;Min_cycle;Max_cycle;Signal;HPM_P1;HPM_P2
2022/10/22 00:01:27;;;;;;;15.90;12.97;;;14.80;99.90;;;;;;5027730;28;20223;-43
2022/10/22 00:03:53;;;;;;;14.27;12.33;;;14.70;99.90;;;;;;5042085;28;20211;-46
2022/10/22 00:06:20;;;;;;;13.07;11.73;;;14.70;99.90;;;;;;5040850;28;20187;-44
2022/10/22 00:08:48;;;;;;;17.87;13.17;;;14.70;99.90;;;;;;5036874;28;20278;-45
2022/10/22 00:11:17;;;;;;;17.03;12.57;;;14.70;99.90;;;;;;5042644;28;20207;-43
2022/10/22 00:13:44;;;;;;;20.23;13.87;;;14.70;99.90;;;;;;5040689;28;20195;-44
2022/10/22 00:16:12;;;;;;;18.17;13.23;;;14.70;99.90;;;;;;5039569;28;20207;-47
2022/10/22 00:18:39;;;;;;;17.47;13.63;;;14.70;99.90;;;;;;5029128;28;20230;-46
2022/10/22 00:21:07;;;;;;;16.10;12.33;;;14.70;99.90;;;;;;5033034;28;20227;-43
2022/10/22 00:23:34;;;;;;;18.13;13.40;;;14.70;99.90;;;;;;5039692;28;20203;-42
2022/10/22 00:26:02;;;;;;;16.13;13.43;;;14.70;99.90;;;;;;5039789;28;20226;-43
2022/10/22 00:28:28;;;;;;;23.33;14.50;;;14.80;99.90;;;;;;5044655;28;20734;-45
2022/10/22 00:30:56;;;;;;;20.97;14.00;;;14.70;99.90;;;;;;5040934;28;20222;-48
2022/10/22 00:33:23;;;;;;;20.10;14.40;;;14.70;99.90;;;;;;5024465;28;20274;-46
2022/10/22 00:35:50;;;;;;;18.77;14.70;;;14.80;99.90;;;;;;5043339;28;20664;-47
2022/10/22 00:38:16;;;;;;;16.93;13.93;;;14.70;99.90;;;;;;5042614;28;20198;-45
2022/10/22 00:40:43;;;;;;;18.13;14.37;;;14.70;99.90;;;;;;5042990;28;20226;-44
2022/10/22 00:43:12;;;;;;;20.87;14.37;;;14.70;99.90;;;;;;5039281;28;20196;-46
2022/10/22 00:45:39;;;;;;;17.73;13.87;;;14.80;99.90;;;;;;5045090;28;20219;-48
2022/10/22 00:48:10;;;;;;;18.60;14.07;;;14.80;99.90;;;;;;5025396;28;20932;-45
2022/10/22 00:50:39;;;;;;;16.87;13.93;;;14.70;99.90;;;;;;5040432;28;20700;-43
2022/10/22 00:53:11;;;;;;;19.87;14.80;;;14.80;99.90;;;;;;5040236;28;20230;-45
2022/10/22 00:55:38;;;;;;;20.60;13.43;;;14.70;99.90;;;;;;5044375;28;20199;-46
2022/10/22 00:58:05;;;;;;;22.07;13.90;;;14.70;99.90;;;;;;5040924;28;20198;-47
2022/10/22 01:00:33;;;;;;;17.87;13.83;;;14.70;99.90;;;;;;5044780;28;20200;-46
2022/10/22 01:03:01;;;;;;;22.23;13.53;;;14.70;99.90;;;;;;5038580;28;20199;-47
2022/10/22 01:05:29;;;;;;;18.83;13.63;;;14.70;99.90;;;;;;5025820;28;20222;-43
2022/10/22 01:07:55;;;;;;;19.53;13.83;;;14.80;99.90;;;;;;5040608;28;20575;-43
2022/10/22 01:10:38;;;;;;;19.87;14.67;;;14.80;99.90;;;;;;5042480;28;20192;-44
2022/10/22 01:13:16;;;;;;;18.50;15.23;;;14.80;99.90;;;;;;5035763;28;20203;-45
2022/10/22 01:15:50;;;;;;;19.17;13.60;;;14.80;99.90;;;;;;5040483;28;20196;-46
2022/10/22 01:18:23;;;;;;;18.10;13.17;;;14.80;99.90;;;;;;5033914;28;20206;-44
2022/10/22 01:21:00;;;;;;;19.23;14.03;;;14.80;99.90;;;;;;5027094;28;20223;-43
2022/10/22 01:23:50;;;;;;;19.37;13.23;;;14.80;99.90;;;;;;5032432;28;20705;-45
2022/10/22 01:26:23;;;;;;;17.13;13.23;;;14.80;99.90;;;;;;5035661;28;20219;-44
2022/10/22 01:29:00;;;;;;;19.17;13.93;;;14.80;99.90;;;;;;5040548;28;20219;-45
2022/10/22 01:31:32;;;;;;;21.53;15.10;;;14.70;99.90;;;;;;5044262;28;20759;-45
2022/10/22 01:34:00;;;;;;;19.10;15.30;;;14.80;99.90;;;;;;5028141;28;20207;-46
2022/10/22 01:36:29;;;;;;;24.70;14.60;;;14.80;99.90;;;;;;5041717;28;20199;-47
2022/10/22 01:38:56;;;;;;;20.70;14.87;;;14.80;99.90;;;;;;5040611;28;20558;-44
2022/10/22 01:41:23;;;;;;;20.83;15.20;;;14.80;99.90;;;;;;5042078;28;20215;-45
2022/10/22 01:43:50;;;;;;;17.43;14.10;;;14.80;99.90;;;;;;5041200;28;20203;-44
2022/10/22 01:46:21;;;;;;;17.77;14.43;;;14.70;99.90;;;;;;5041779;28;20417;-43
2022/10/22 01:49:07;;;;;;;19.27;14.80;;;14.70;99.90;;;;;;5038902;28;20223;-45
2022/10/22 01:51:47;;;;;;;20.17;14.47;;;14.70;99.90;;;;;;5043233;28;20223;-44
2022/10/22 01:54:24;;;;;;;18.77;12.73;;;14.60;99.90;;;;;;5039682;28;20203;-48
2022/10/22 01:56:58;;;;;;;17.17;13.90;;;14.60;99.90;;;;;;5035453;28;20210;-47
2022/10/22 01:59:38;;;;;;;17.17;13.23;;;14.50;99.90;;;;;;5042945;28;20199;-47
2022/10/22 02:02:16;;;;;;;17.03;13.17;;;14.50;99.90;;;;;;5038700;28;20215;-44
2022/10/22 02:04:49;;;;;;;24.30;13.67;;;14.50;99.90;;;;;;5034244;28;20294;-45
2022/10/22 02:07:21;;;;;;;18.20;13.33;;;14.40;99.90;;;;;;5032329;28;20195;-45
2022/10/22 02:09:50;;;;;;;14.70;11.70;;;14.30;99.90;;;;;;5043201;28;20195;-43
2022/10/22 02:12:20;;;;;;;14.30;11.27;;;14.30;99.90;;;;;;5040849;28;20211;-44
2022/10/22 02:14:49;;;;;;;18.93;13.67;;;14.20;99.90;;;;;;5041025;28;20278;-44
2022/10/22 02:17:21;;;;;;;22.73;13.50;;;14.10;99.90;;;;;;5040205;28;20978;-43
2022/10/22 02:19:52;;;;;;;15.27;12.10;;;14.10;99.90;;;;;;5042528;28;20613;-46
2022/10/22 02:22:20;;;;;;;15.63;11.03;;;14.10;99.90;;;;;;5025374;28;20446;-47
2022/10/22 02:24:49;;;;;;;14.80;10.67;;;14.10;99.90;;;;;;5041641;28;20253;-45
2022/10/22 02:27:21;;;;;;;16.90;10.50;;;14.00;99.90;;;;;;5040910;28;20218;-44
2022/10/22 02:29:54;;;;;;;20.27;10.70;;;13.90;99.90;;;;;;5038446;28;20207;-43
2022/10/22 02:32:26;;;;;;;19.50;10.40;;;13.90;99.90;;;;;;5041973;28;20211;-43
2022/10/22 02:34:55;;;;;;;14.03;10.40;;;13.90;99.90;;;;;;5039208;28;20204;-47
2022/10/22 02:37:24;;;;;;;16.27;10.60;;;13.70;99.90;;;;;;5026278;28;20471;-47
2022/10/22 02:39:52;;;;;;;11.27;9.97;;;13.70;99.90;;;;;;5034234;28;20570;-43
2022/10/22 02:42:19;;;;;;;18.67;10.03;;;13.60;99.90;;;;;;5040912;28;20238;-46
2022/10/22 02:44:46;;;;;;;16.80;9.93;;;13.60;99.90;;;;;;5040140;28;20215;-44
2022/10/22 02:47:12;;;;;;;13.57;10.47;;;13.50;99.90;;;;;;5040293;28;20837;-46
2022/10/22 02:49:40;;;;;;;17.00;9.67;;;13.50;99.90;;;;;;5041917;28;20203;-47
2022/10/22 02:52:07;;;;;;;14.80;10.03;;;13.50;99.90;;;;;;5037967;28;20234;-44
2022/10/22 02:54:34;;;;;;;14.37;9.60;;;13.40;99.90;;;;;;5026411;28;20209;-42
2022/10/22 02:57:00;;;;;;;23.13;10.23;;;13.30;99.90;;;;;;5039521;28;20207;-46
2022/10/22 02:59:27;;;;;;;35.50;11.97;;;13.20;99.90;;;;;;5035812;28;20353;-46
2022/10/22 03:01:54;;;;;;;25.73;11.77;;;13.20;99.90;;;;;;5040913;28;20223;-44
2022/10/22 03:04:21;;;;;;;16.10;11.03;;;13.30;99.90;;;;;;5040096;28;20190;-44
2022/10/22 03:06:49;;;;;;;14.83;10.43;;;13.20;99.90;;;;;;5033955;28;20223;-48
2022/10/22 03:09:15;;;;;;;17.87;10.63;;;13.20;99.90;;;;;;5024739;28;20199;-46
2022/10/22 03:11:42;;;;;;;13.60;9.77;;;13.10;99.90;;;;;;5042725;28;20215;-43
2022/10/22 03:14:09;;;;;;;17.47;10.10;;;13.10;99.90;;;;;;5036812;28;20908;-46
2022/10/22 03:16:36;;;;;;;11.17;9.70;;;13.00;99.90;;;;;;5046160;28;20541;-43
2022/10/22 03:19:02;;;;;;;12.33;9.90;;;13.00;99.90;;;;;;5037374;28;20207;-44
2022/10/22 03:21:33;;;;;;;14.47;10.43;;;13.00;99.90;;;;;;5046617;28;20235;-47
2022/10/22 03:24:05;;;;;;;14.93;10.47;;;13.10;99.90;;;;;;5029314;28;20199;-43
2022/10/22 03:26:33;;;;;;;12.83;8.93;;;13.00;99.90;;;;;;5045954;28;20211;-45
2022/10/22 03:29:00;;;;;;;13.20;9.70;;;13.00;99.90;;;;;;5041969;28;20672;-44
2022/10/22 03:31:27;;;;;;;10.03;8.43;;;13.00;99.90;;;;;;5044534;28;20215;-45
2022/10/22 03:33:55;;;;;;;12.33;8.67;;;12.90;99.90;;;;;;5042835;28;20207;-46
2022/10/22 03:36:22;;;;;;;15.03;10.60;;;12.80;99.90;;;;;;5044738;28;20245;-42
2022/10/22 03:38:49;;;;;;;15.93;10.40;;;12.80;99.90;;;;;;5040760;28;20208;-46
2022/10/22 03:41:17;;;;;;;17.27;11.00;;;12.80;99.90;;;;;;5034250;28;20965;-43
2022/10/22 03:43:48;;;;;;;16.87;10.77;;;12.80;99.90;;;;;;5045334;28;20199;-47
2022/10/22 03:46:15;;;;;;;15.23;10.80;;;12.80;99.90;;;;;;5037243;28;20226;-45
2022/10/22 03:48:41;;;;;;;18.73;11.67;;;12.70;99.90;;;;;;5046549;28;20199;-42
2022/10/22 03:51:08;;;;;;;15.70;11.27;;;12.70;99.90;;;;;;5037775;28;20859;-43
2022/10/22 03:53:35;;;;;;;14.17;9.93;;;12.70;99.90;;;;;;5039047;28;20199;-46
2022/10/22 03:56:01;;;;;;;18.73;12.37;;;12.70;99.90;;;;;;5029521;28;20577;-46
2022/10/22 03:58:29;;;;;;;15.50;10.90;;;12.70;99.90;;;;;;5046011;28;20204;-43
2022/10/22 04:00:56;;;;;;;16.80;10.57;;;12.70;99.90;;;;;;5037029;28;20556;-44
2022/10/22 04:03:22;;;;;;;18.37;11.40;;;12.70;99.90;;;;;;5042863;28;20195;-46
2022/10/22 04:05:49;;;;;;;20.33;11.00;;;12.70;99.90;;;;;;5044252;28;20672;-48
2022/10/22 04:08:16;;;;;;;15.27;10.33;;;12.70;99.90;;;;;;5043388;28;20210;-44
2022/10/22 04:10:43;;;;;;;11.10;9.57;;;;;;;;;;5030324;28;20223;-42
2022/10/22 04:13:09;;;;;;;15.73;11.00;;;12.60;99.90;;;;;;5041106;28;20196;-45
2022/10/22 04:15:37;;;;;;;16.07;11.47;;;12.50;99.90;;;;;;5045465;28;20203;-43
2022/10/22 04:18:04;;;;;;;18.57;13.37;;;12.50;99.90;;;;;;5041904;28;20192;-46
2022/10/22 04:20:30;;;;;;;20.43;13.30;;;12.60;99.90;;;;;;5045392;28;20199;-44
2022/10/22 04:22:57;;;;;;;21.83;14.70;;;12.80;99.90;;;;;;5034260;28;20200;-44
2022/10/22 04:25:24;;;;;;;21.67;15.33;;;13.00;99.90;;;;;;5028533;28;20223;-43
2022/10/22 04:27:50;;;;;;;25.10;15.67;;;13.10;99.90;;;;;;5038988;28;20207;-44
2022/10/22 04:30:17;;;;;;;29.33;16.30;;;13.10;99.90;;;;;;5045818;28;20234;-45
2022/10/22 04:32:46;;;;;;;23.20;15.83;;;13.20;99.90;;;;;;5039988;28;20218;-46
2022/10/22 04:35:13;;;;;;;27.23;16.30;;;13.20;99.90;;;;;;5035170;28;20680;-43
2022/10/22 04:37:40;;;;;;;24.37;15.73;;;13.20;99.90;;;;;;5034394;28;20203;-47
2022/10/22 04:40:09;;;;;;;28.13;17.63;;;13.30;99.90;;;;;;5029140;28;20212;-42
2022/10/22 04:42:35;;;;;;;33.20;18.43;;;13.30;99.90;;;;;;5043069;28;20242;-48
2022/10/22 04:45:02;;;;;;;55.30;19.13;;;13.30;99.90;;;;;;5042697;28;21017;-47
2022/10/22 04:47:28;;;;;;;31.67;18.70;;;13.30;99.90;;;;;;5044517;28;20199;-43
2022/10/22 04:49:56;;;;;;;25.33;13.13;;;13.40;99.90;;;;;;5041942;28;20207;-46
2022/10/22 04:52:23;;;;;;;23.33;13.87;;;13.30;99.90;;;;;;5045285;28;20247;-46
2022/10/22 04:54:50;;;;;;;33.77;15.87;;;13.30;99.90;;;;;;5035371;28;20232;-45
2022/10/22 04:57:16;;;;;;;34.00;17.57;;;13.30;99.90;;;;;;5029125;28;20573;-42
2022/10/22 04:59:43;;;;;;;43.83;18.73;;;13.30;99.90;;;;;;5039612;28;20200;-43
2022/10/22 05:02:10;;;;;;;86.10;20.37;;;13.40;99.90;;;;;;5043849;28;20225;-45
2022/10/22 05:04:36;;;;;;;43.03;19.33;;;13.40;99.90;;;;;;5039928;28;20208;-45
2022/10/22 05:07:05;;;;;;;43.97;19.90;;;13.40;99.90;;;;;;5032554;28;20353;-46
2022/10/22 05:09:31;;;;;;;34.97;19.07;;;13.40;99.90;;;;;;5038120;28;20206;-48
2022/10/22 05:11:58;;;;;;;28.87;18.13;;;13.40;99.90;;;;;;5024304;28;20219;-50
2022/10/22 05:14:25;;;;;;;98.40;20.10;;;13.40;99.90;;;;;;5043548;28;20199;-45
2022/10/22 05:16:52;;;;;;;152.83;23.00;;;13.40;99.90;;;;;;5038171;28;20187;-43
2022/10/22 05:19:22;;;;;;;71.40;20.23;;;13.40;99.90;;;;;;5036812;28;20211;-45
2022/10/22 05:21:49;;;;;;;88.73;19.73;;;13.40;99.90;;;;;;5032604;28;20902;-45
2022/10/22 05:24:17;;;;;;;48.93;18.93;;;13.50;99.90;;;;;;5043287;28;20199;-46
2022/10/22 05:26:44;;;;;;;100.30;19.83;;;13.50;99.90;;;;;;5019292;28;20219;-44
2022/10/22 05:29:11;;;;;;;141.97;21.27;;;13.50;99.90;;;;;;5044101;28;20708;-43
2022/10/22 05:31:38;;;;;;;140.70;23.43;;;13.50;99.90;;;;;;5041371;28;20223;-47
2022/10/22 05:34:05;;;;;;;114.27;21.83;;;13.50;99.90;;;;;;5041399;28;20228;-46
2022/10/22 05:36:31;;;;;;;114.73;22.10;;;13.50;99.90;;;;;;5041330;28;20554;-49
2022/10/22 05:38:58;;;;;;;81.00;20.97;;;13.50;99.90;;;;;;5031655;28;20424;-47
2022/10/22 05:41:27;;;;;;;139.67;23.50;;;13.50;99.90;;;;;;5037658;28;20238;-47
2022/10/22 05:43:55;;;;;;;98.70;23.87;;;13.50;99.90;;;;;;5028161;28;20207;-43
2022/10/22 05:46:23;;;;;;;67.67;22.77;;;13.50;99.90;;;;;;5041872;28;20211;-45
2022/10/22 05:48:50;;;;;;;98.40;21.97;;;13.50;99.90;;;;;;5026997;28;20250;-46
2022/10/22 05:51:18;;;;;;;121.37;22.53;;;13.50;99.90;;;;;;5037332;28;20301;-43
2022/10/22 05:53:44;;;;;;;199.87;28.70;;;13.50;99.90;;;;;;5038973;28;20294;-45
2022/10/22 05:56:13;;;;;;;144.20;25.37;;;13.50;99.90;;;;;;5038701;28;20191;-46
2022/10/22 05:58:41;;;;;;;123.10;24.80;;;13.50;99.90;;;;;;5024965;28;20601;-47
2022/10/22 06:01:13;;;;;;;70.17;23.77;;;13.50;99.90;;;;;;5042758;28;20219;-45
2022/10/22 06:03:40;;;;;;;89.93;24.17;;;13.50;99.90;;;;;;5039575;28;20199;-42
2022/10/22 06:06:17;;;;;;;60.43;24.87;;;13.50;99.90;;;;;;5042920;28;20226;-42
2022/10/22 06:08:44;;;;;;;51.33;25.17;;;13.50;99.90;;;;;;5035488;28;20199;-43
2022/10/22 06:11:10;;;;;;;51.73;25.50;;;13.50;99.90;;;;;;5043618;28;20227;-43
2022/10/22 06:13:37;;;;;;;41.70;24.90;;;13.50;99.90;;;;;;5010006;28;20203;-42
2022/10/22 06:16:05;;;;;;;47.37;25.30;;;13.50;99.90;;;;;;5033106;28;20204;-42
2022/10/22 06:18:33;;;;;;;46.07;23.90;;;13.50;99.90;;;;;;5033404;28;20226;-45
2022/10/22 06:21:04;;;;;;;41.60;23.50;;;13.50;99.90;;;;;;5042089;28;20711;-42
2022/10/22 06:23:31;;;;;;;43.27;24.00;;;13.50;99.90;;;;;;5037909;28;20286;-42
2022/10/22 06:25:58;;;;;;;44.03;24.43;;;13.50;99.90;;;;;;5043479;28;20222;-43
2022/10/22 06:28:25;;;;;;;42.70;24.50;;;13.50;99.90;;;;;;5024343;28;20213;-43
2022/10/22 06:30:52;;;;;;;46.03;23.60;;;13.50;99.90;;;;;;5039662;28;20285;-43
2022/10/22 06:33:20;;;;;;;34.77;20.53;;;13.50;99.90;;;;;;5040757;28;20210;-43
2022/10/22 06:35:47;;;;;;;35.20;22.23;;;13.50;99.90;;;;;;5041407;28;20187;-44
2022/10/22 06:38:14;;;;;;;33.40;21.97;;;13.50;99.90;;;;;;5037704;28;20286;-45
2022/10/22 06:40:42;;;;;;;33.77;21.77;;;13.50;99.90;;;;;;5040206;28;21029;-45
2022/10/22 06:43:09;;;;;;;33.93;20.93;;;13.50;99.90;;;;;;5037483;28;20208;-42
2022/10/22 06:45:35;;;;;;;29.30;20.10;;;13.50;99.90;;;;;;5022762;28;20843;-43
2022/10/22 06:48:02;;;;;;;30.47;20.80;;;13.50;99.90;;;;;;5043214;28;20345;-43
2022/10/22 06:50:30;;;;;;;32.33;20.40;;;13.50;99.90;;;;;;5038721;28;20195;-44
2022/10/22 06:52:57;;;;;;;28.70;19.47;;;13.50;99.90;;;;;;5043071;28;20203;-49
2022/10/22 06:55:24;;;;;;;37.07;20.60;;;13.50;99.90;;;;;;5039698;28;20659;-43
2022/10/22 06:57:51;;;;;;;32.60;20.40;;;13.50;99.90;;;;;;5041965;28;20293;-44
2022/10/22 07:00:18;;;;;;;26.53;18.47;;;13.50;99.90;;;;;;5021689;28;20231;-42
2022/10/22 07:02:51;;;;;;;28.47;18.67;;;13.40;99.90;;;;;;5040614;28;20204;-42
2022/10/22 07:05:18;;;;;;;29.13;19.43;;;13.50;99.90;;;;;;5035961;28;20202;-42
2022/10/22 07:07:46;;;;;;;28.30;18.70;;;13.40;99.90;;;;;;5040555;28;20312;-44
2022/10/22 07:10:13;;;;;;;27.23;18.37;;;13.40;99.90;;;;;;5042774;28;20210;-44
2022/10/22 07:12:39;;;;;;;27.80;18.80;;;13.50;99.90;;;;;;5039259;28;20223;-45
2022/10/22 07:15:07;;;;;;;33.47;19.80;;;13.50;99.90;;;;;;5021124;28;20200;-43
2022/10/22 07:17:33;;;;;;;31.40;19.37;;;13.50;99.90;;;;;;5038729;28;20912;-43
2022/10/22 07:20:00;;;;;;;28.40;18.73;;;13.40;99.90;;;;;;5042859;28;20203;-43
2022/10/22 07:22:28;;;;;;;27.93;18.90;;;13.40;99.90;;;;;;5039656;28;20314;-43
2022/10/22 07:24:55;;;;;;;24.33;18.53;;;13.50;99.90;;;;;;5041424;28;20200;-45
2022/10/22 07:27:22;;;;;;;24.77;18.40;;;13.50;99.90;;;;;;5040503;28;20227;-42
2022/10/22 07:29:49;;;;;;;27.90;18.27;;;13.50;99.90;;;;;;5036430;28;20203;-44
2022/10/22 07:32:16;;;;;;;25.07;19.03;;;13.50;99.90;;;;;;5028733;28;20220;-43
2022/10/22 07:34:43;;;;;;;26.43;17.10;;;13.50;99.90;;;;;;5038623;28;20283;-43
2022/10/22 07:37:10;;;;;;;22.93;18.13;;;13.50;99.90;;;;;;5042734;28;20195;-42
2022/10/22 07:39:37;;;;;;;28.17;18.07;;;13.60;99.90;;;;;;5038714;28;20928;-44
2022/10/22 07:42:05;;;;;;;27.27;17.60;;;13.60;99.90;;;;;;5042919;28;20230;-45
2022/10/22 07:44:32;;;;;;;23.37;16.63;;;13.50;99.90;;;;;;5032266;28;20249;-45
2022/10/22 07:46:58;;;;;;;24.27;16.23;;;13.50;99.90;;;;;;5021940;28;20224;-44
2022/10/22 07:49:25;;;;;;;24.87;16.07;;;13.50;99.90;;;;;;5040022;28;20199;-45
2022/10/22 07:51:52;;;;;;;25.27;15.63;;;13.50;99.90;;;;;;5041349;28;20231;-47
2022/10/22 07:54:18;;;;;;;25.33;16.97;;;13.50;99.90;;;;;;5040267;28;20672;-44
2022/10/22 07:56:45;;;;;;;23.50;14.80;;;13.50;99.90;;;;;;5040073;28;20202;-42
2022/10/22 07:59:14;;;;;;;20.57;15.50;;;13.60;99.90;;;;;;5042356;28;20199;-45
2022/10/22 08:01:40;;;;;;;20.43;14.53;;;13.60;99.90;;;;;;5023962;28;20221;-44
2022/10/22 08:04:08;;;;;;;21.93;15.57;;;13.50;99.90;;;;;;5045029;28;20199;-44
2022/10/22 08:06:35;;;;;;;21.83;15.83;;;13.60;99.90;;;;;;5041251;28;20215;-44
2022/10/22 08:09:02;;;;;;;20.53;15.10;;;13.60;99.90;;;;;;5046047;28;20577;-42
2022/10/22 08:11:29;;;;;;;24.07;16.47;;;13.60;99.90;;;;;;5042274;28;20223;-43
2022/10/22 08:13:56;;;;;;;22.80;16.40;;;13.60;99.90;;;;;;5044810;28;20203;-44
2022/10/22 08:16:24;;;;;;;19.93;15.13;;;13.60;99.90;;;;;;5034133;28;20671;-42
2022/10/22 08:18:51;;;;;;;20.57;15.87;;;13.70;99.90;;;;;;5039971;28;20206;-43
2022/10/22 08:21:18;;;;;;;19.93;15.57;;;13.70;99.90;;;;;;5044392;28;20770;-44
2022/10/22 08:23:44;;;;;;;21.57;14.97;;;13.70;99.90;;;;;;5042323;28;20934;-43
2022/10/22 08:26:11;;;;;;;23.40;15.67;;;13.70;99.90;;;;;;5045691;28;20203;-47
2022/10/22 08:28:38;;;;;;;25.27;16.70;;;13.70;99.90;;;;;;5041712;28;20210;-42
2022/10/22 08:31:06;;;;;;;21.83;15.80;;;13.70;99.90;;;;;;5045784;28;20307;-42
2022/10/22 08:33:34;;;;;;;21.47;15.70;;;13.70;99.90;;;;;;5024403;28;20867;-43
2022/10/22 08:36:01;;;;;;;27.03;16.70;;;13.80;99.90;;;;;;5045142;28;20206;-46
2022/10/22 08:38:30;;;;;;;23.53;15.30;;;13.80;99.90;;;;;;5042293;28;20253;-45
2022/10/22 08:41:03;;;;;;;20.53;16.30;;;13.80;99.90;;;;;;5045338;28;20223;-45
2022/10/22 08:43:47;;;;;;;22.70;16.37;;;13.90;99.90;;;;;;5040678;28;20199;-42
2022/10/22 08:46:29;;;;;;;22.50;16.60;;;14.00;99.90;;;;;;5044793;28;20209;-43
2022/10/22 08:49:00;;;;;;;23.60;16.10;;;14.00;99.90;;;;;;5029640;28;20573;-44
2022/10/22 08:51:30;;;;;;;23.60;16.67;;;14.00;99.90;;;;;;5035250;28;20226;-47
2022/10/22 08:54:12;;;;;;;24.23;17.07;;;14.00;99.90;;;;;;5038164;28;20207;-47
2022/10/22 08:56:43;;;;;;;24.60;17.37;;;14.10;99.90;;;;;;5041260;28;20198;-45
2022/10/22 08:59:17;;;;;;;26.57;17.37;;;14.10;99.90;;;;;;5045096;28;20195;-46
2022/10/22 09:01:46;;;;;;;29.00;17.73;;;14.30;99.90;;;;;;5042362;28;20985;-48
2022/10/22 09:04:24;;;;;;;25.90;18.27;;;14.40;99.90;;;;;;5028125;28;20207;-42
2022/10/22 09:06:52;;;;;;;29.23;19.00;;;14.50;99.90;;;;;;5042796;28;20222;-45
2022/10/22 09:09:20;;;;;;;27.57;18.17;;;14.60;99.90;;;;;;5043582;28;20286;-43
2022/10/22 09:11:50;;;;;;;22.77;16.20;;;14.70;99.90;;;;;;5042891;28;20294;-43
2022/10/22 09:14:19;;;;;;;26.00;17.93;;;14.80;99.90;;;;;;5042307;28;20204;-44
2022/10/22 09:17:05;;;;;;;25.20;17.17;;;15.00;99.90;;;;;;5042608;28;20199;-42
2022/10/22 09:19:39;;;;;;;19.63;15.07;;;15.20;99.90;;;;;;5024803;28;20204;-46
2022/10/22 09:22:19;;;;;;;23.43;15.40;;;15.20;99.90;;;;;;5044312;28;20592;-43
2022/10/22 09:24:48;;;;;;;22.27;14.73;;;15.30;99.90;;;;;;5041555;28;20203;-45
2022/10/22 09:27:18;;;;;;;18.63;14.83;;;15.30;99.90;;;;;;5043865;28;20203;-43
2022/10/22 09:29:47;;;;;;;17.57;14.13;;;15.30;99.90;;;;;;5041923;28;20218;-44
2022/10/22 09:32:14;;;;;;;18.07;13.97;;;15.40;99.90;;;;;;5044125;28;20222;-47
2022/10/22 09:34:44;;;;;;;18.10;13.50;;;15.50;99.90;;;;;;5025011;28;20218;-45
2022/10/22 09:37:11;;;;;;;18.37;12.87;;;15.60;99.90;;;;;;5043938;28;20714;-47
2022/10/22 09:39:40;;;;;;;17.60;12.40;;;15.80;99.90;;;;;;5040339;28;20191;-44
2022/10/22 09:42:07;;;;;;;18.17;11.80;;;15.90;99.90;;;;;;5044363;28;20727;-44
2022/10/22 09:44:36;;;;;;;18.47;10.83;;;16.00;99.90;;;;;;5038706;28;20204;-45
2022/10/22 09:47:04;;;;;;;17.60;11.13;;;16.10;99.90;;;;;;5044424;28;20672;-43
2022/10/22 09:49:35;;;;;;;11.87;9.37;;;16.20;99.90;;;;;;5022731;28;20199;-43
2022/10/22 09:52:23;;;;;;;10.00;8.43;;;16.20;99.90;;;;;;5041908;28;20593;-45
2022/10/22 09:54:52;;;;;;;12.00;7.77;;;16.30;99.90;;;;;;5041816;28;20215;-45
2022/10/22 09:57:22;;;;;;;11.93;7.43;;;16.30;99.90;;;;;;5042525;28;20274;-44
2022/10/22 09:59:52;;;;;;;10.43;7.63;;;16.30;99.90;;;;;;5042539;28;20195;-42
2022/10/22 10:02:22;;;;;;;13.47;7.77;;;16.40;99.90;;;;;;5042170;28;20680;-44
2022/10/22 10:04:50;;;;;;;9.07;6.67;;;16.50;99.90;;;;;;5025301;28;21109;-46
2022/10/22 10:07:20;;;;;;;6.77;5.80;;;16.60;99.90;;;;;;5041929;28;20206;-44
2022/10/22 10:09:48;;;;;;;10.77;5.70;;;16.70;99.90;;;;;;5041819;28;20207;-42
2022/10/22 10:12:34;;;;;;;14.47;5.67;;;16.70;99.90;;;;;;5042944;28;20583;-44
2022/10/22 10:15:11;;;;;;;11.03;5.50;;;16.70;99.90;;;;;;5042592;28;20199;-42
2022/10/22 10:17:43;;;;;;;7.83;4.33;;;16.80;99.90;;;;;;5039709;28;20269;-44
2022/10/22 10:20:25;;;;;;;9.87;4.90;;;16.90;99.90;;;;;;5027894;28;20219;-42
2022/10/22 10:23:03;;;;;;;6.77;3.80;;;17.00;99.90;;;;;;5042257;28;20203;-43
2022/10/22 10:25:49;;;;;;;8.57;4.33;;;16.90;99.90;;;;;;5038426;28;20690;-44
2022/10/22 10:28:36;;;;;;;5.10;3.70;;;16.90;99.90;;;;;;5042178;28;20801;-42
2022/10/22 10:31:14;;;;;;;6.03;3.43;;;16.90;99.90;;;;;;5043683;28;20219;-43
2022/10/22 10:33:47;;;;;;;5.93;3.93;;;17.00;99.90;;;;;;5039378;28;20257;-42
2022/10/22 10:36:22;;;;;;;6.27;4.07;;;17.10;99.90;;;;;;5024021;28;20207;-43
2022/10/22 10:38:58;;;;;;;5.43;3.70;;;17.10;99.90;;;;;;5041922;28;20291;-43
2022/10/22 10:41:37;;;;;;;5.13;3.83;;;17.20;99.90;;;;;;5040757;28;20265;-42
2022/10/22 10:44:26;;;;;;;7.90;3.87;;;17.20;99.90;;;;;;5042200;28;20203;-45
2022/10/22 10:47:01;;;;;;;8.13;4.80;;;17.30;99.90;;;;;;5042565;28;20203;-45
2022/10/22 10:49:32;;;;;;;5.30;3.43;;;17.30;99.90;;;;;;5040141;28;20614;-43
2022/10/22 10:52:09;;;;;;;7.70;3.00;;;17.40;99.90;;;;;;5027417;28;20695;-44
2022/10/22 10:54:45;;;;;;;7.57;3.33;;;17.50;99.90;;;;;;5038017;28;20195;-45
2022/10/22 10:57:20;;;;;;;5.43;2.97;;;17.60;99.90;;;;;;5043185;28;20209;-43
2022/10/22 11:00:02;;;;;;;6.00;2.80;;;17.70;99.90;;;;;;5041225;28;20190;-46
2022/10/22 11:03:07;;;;;;;6.30;2.77;;;17.80;99.90;;;;;;5039521;28;20749;-45
2022/10/22 11:05:39;;;;;;;9.67;3.27;;;17.80;99.90;;;;;;5038388;28;20202;-47
2022/10/22 11:08:12;;;;;;;6.77;2.97;;;17.90;99.90;;;;;;5027264;28;20223;-45
2022/10/22 11:10:44;;;;;;;7.20;2.73;;;18.00;99.90;;;;;;5034781;28;20195;-42
2022/10/22 11:13:18;;;;;;;5.60;2.37;;;18.20;99.90;;;;;;5041957;28;20203;-42
2022/10/22 11:15:50;;;;;;;7.03;2.77;;;18.20;99.90;;;;;;5040989;28;20197;-42
2022/10/22 11:18:24;;;;;;;6.07;2.40;;;18.30;99.90;;;;;;5041937;28;20206;-43
2022/10/22 11:20:57;;;;;;;3.47;2.17;;;18.40;99.90;;;;;;5041500;28;20219;-42
2022/10/22 11:23:31;;;;;;;9.07;2.60;;;18.50;99.90;;;;;;5023292;28;20687;-44
2022/10/22 11:26:01;;;;;;;5.27;2.10;;;18.60;99.90;;;;;;5042659;28;20209;-46
2022/10/22 11:28:32;;;;;;;7.10;2.30;;;18.70;99.90;;;;;;5039187;28;20219;-43
2022/10/22 11:31:02;;;;;;;4.97;2.47;;;18.90;99.90;;;;;;5042994;28;20234;-43
2022/10/22 11:33:39;;;;;;;4.30;1.90;;;19.00;99.90;;;;;;5032128;28;20207;-47
2022/10/22 11:36:07;;;;;;;3.60;1.83;;;19.10;99.90;;;;;;5036167;28;20203;-44
2022/10/22 11:38:35;;;;;;;4.20;1.90;;;19.20;99.90;;;;;;5025160;28;20326;-44
2022/10/22 11:41:06;;;;;;;5.07;1.57;;;19.20;99.90;;;;;;5043146;28;20242;-44
2022/10/22 11:43:35;;;;;;;7.57;2.37;;;19.20;99.90;;;;;;5039212;28;20900;-43
2022/10/22 11:46:25;;;;;;;6.03;1.80;;;19.10;99.90;;;;;;5046637;28;20195;-42
2022/10/22 11:49:04;;;;;;;5.07;1.80;;;19.10;99.90;;;;;;5045586;28;20226;-45
2022/10/22 11:51:34;;;;;;;5.37;2.13;;;19.10;99.90;;;;;;5031914;28;20570;-43
2022/10/22 11:54:03;;;;;;;3.93;2.00;;;19.00;99.90;;;;;;5027783;28;20222;-42
2022/10/22 11:56:38;;;;;;;5.60;2.00;;;19.00;99.90;;;;;;5042367;28;20199;-42
2022/10/22 11:59:32;;;;;;;6.90;2.60;;;19.00;99.90;;;;;;5046271;28;20199;-42
2022/10/22 12:01:59;;;;;;;3.60;2.23;;;19.00;99.90;;;;;;5045924;28;20227;-43
2022/10/22 12:04:41;;;;;;;8.50;2.17;;;19.00;99.90;;;;;;5042293;28;20211;-44
2022/10/22 12:07:32;;;;;;;3.43;1.83;;;19.00;99.90;;;;;;5045348;28;20199;-43
2022/10/22 12:09:59;;;;;;;9.23;2.13;;;19.00;99.90;;;;;;5030314;28;20206;-43
2022/10/22 12:12:28;;;;;;;7.67;2.03;;;19.10;99.90;;;;;;5042617;28;20219;-42
2022/10/22 12:14:58;;;;;;;4.37;2.07;;;19.20;99.90;;;;;;5041933;28;20211;-42
2022/10/22 12:17:25;;;;;;;4.03;1.73;;;19.30;99.90;;;;;;5043350;28;20206;-42
2022/10/22 12:19:59;;;;;;;7.37;2.60;;;19.40;99.90;;;;;;5045142;28;20207;-42
2022/10/22 12:22:28;;;;;;;4.97;1.97;;;19.50;99.90;;;;;;5042512;28;20288;-42
2022/10/22 12:24:59;;;;;;;3.03;2.00;;;19.50;99.90;;;;;;5028609;28;20702;-43
2022/10/22 12:27:33;;;;;;;4.67;2.47;;;19.50;99.90;;;;;;5042660;28;20200;-45
2022/10/22 12:30:01;;;;;;;6.40;2.27;;;19.50;99.90;;;;;;5039683;28;20197;-41
2022/10/22 12:32:34;;;;;;;5.70;2.37;;;19.50;99.90;;;;;;5042342;28;20219;-42
2022/10/22 12:35:06;;;;;;;5.10;2.40;;;19.50;99.90;;;;;;5044505;28;20696;-41
2022/10/22 12:37:35;;;;;;;6.53;2.30;;;19.40;99.90;;;;;;5041091;28;20195;-41
2022/10/22 12:40:02;;;;;;;4.23;2.10;;;19.30;99.90;;;;;;5030031;28;20211;-42
2022/10/22 12:42:30;;;;;;;5.07;2.40;;;19.20;99.90;;;;;;5041716;28;20211;-41
2022/10/22 12:44:57;;;;;;;5.73;2.80;;;19.20;99.90;;;;;;5044086;28;20206;-45